Time;durP1;ratioP1;P1;durP2;ratioP2;P2;SDS_P1;SDS_P2;PMS_P1;PMS_P2;Temp;Humidity;BMP_temperature;BMP_pressure;BME280_temperature;BME280_humidity;BME280_pressure;Samples;Min_cycle;Max_cycle;Signal;HPM_P1;HPM_P2
2023/03/23 00:01:19;;;;;;;6.10;3.00;;;12.60;99.90;;;;;;4977133;28;36265;-81
2023/03/23 00:03:47;;;;;;;9.32;3.30;;;12.60;99.90;;;;;;4980191;28;38908;-82
2023/03/23 00:06:17;;;;;;;8.43;2.83;;;12.60;99.90;;;;;;4984744;28;38512;-81
2023/03/23 00:08:46;;;;;;;10.82;3.30;;;12.60;99.90;;;;;;4992942;28;40432;-81
2023/03/23 00:11:21;;;;;;;9.40;3.53;;;12.50;99.90;;;;;;4991135;28;38280;-83
2023/03/23 00:13:53;;;;;;;8.55;2.85;;;12.50;99.90;;;;;;4978539;28;38829;-82
2023/03/23 00:16:30;;;;;;;7.95;3.63;;;12.50;99.90;;;;;;4975351;28;38315;-83
2023/03/23 00:19:05;;;;;;;4.18;2.65;;;12.50;99.90;;;;;;4981922;28;37507;-82
2023/03/23 00:21:38;;;;;;;7.90;3.20;;;12.50;99.90;;;;;;4977475;28;48518;-82
2023/03/23 00:24:08;;;;;;;8.55;3.25;;;12.50;99.90;;;;;;4994696;28;40230;-81
2023/03/23 00:26:48;;;;;;;6.50;3.13;;;12.50;99.90;;;;;;4991178;28;39835;-83
2023/03/23 00:29:21;;;;;;;10.48;3.30;;;12.50;99.90;;;;;;4982330;28;38611;-81
2023/03/23 00:31:47;;;;;;;;;;;12.50;99.90;;;;;;4994960;28;38402;-81
2023/03/23 00:34:22;;;;;;;5.18;3.25;;;12.50;99.90;;;;;;4996211;28;39114;-82
2023/03/23 00:37:09;;;;;;;5.47;2.65;;;12.50;99.90;;;;;;4982105;28;38937;-83
2023/03/23 00:39:45;;;;;;;10.93;2.90;;;12.50;99.90;;;;;;4997725;28;50186;-82
2023/03/23 00:42:16;;;;;;;6.65;3.00;;;12.50;99.90;;;;;;4992030;28;38127;-81
2023/03/23 00:44:44;;;;;;;6.80;2.40;;;12.50;99.90;;;;;;4997339;28;40340;-84
2023/03/23 00:47:11;;;;;;;6.13;3.17;;;12.50;99.90;;;;;;4978852;28;38220;-82
2023/03/23 00:49:38;;;;;;;7.22;3.33;;;12.50;99.90;;;;;;4992814;28;39565;-83
2023/03/23 00:52:05;;;;;;;6.22;2.78;;;12.50;99.90;;;;;;4980922;28;37152;-82
2023/03/23 00:54:33;;;;;;;10.45;3.15;;;12.50;99.90;;;;;;4998453;28;39557;-82
2023/03/23 00:57:28;;;;;;;6.35;2.55;;;12.50;99.90;;;;;;4983974;28;39674;-81
2023/03/23 01:00:10;;;;;;;8.50;3.45;;;12.50;99.90;;;;;;4986130;28;48767;-82
2023/03/23 01:02:40;;;;;;;7.43;2.83;;;12.50;99.90;;;;;;4993761;28;47172;-83
2023/03/23 01:05:14;;;;;;;4.10;2.78;;;12.50;99.90;;;;;;4977311;28;37923;-83
2023/03/23 01:07:44;;;;;;;6.70;2.70;;;12.60;99.90;;;;;;4993957;28;40138;-82
2023/03/23 01:10:18;;;;;;;5.55;2.63;;;12.50;99.90;;;;;;4971299;28;36347;-82
2023/03/23 01:12:50;;;;;;;5.35;2.80;;;12.50;99.90;;;;;;4984626;28;37511;-80
2023/03/23 01:15:42;;;;;;;7.93;3.00;;;12.50;99.90;;;;;;4981602;28;38663;-81
2023/03/23 01:18:16;;;;;;;7.80;3.40;;;12.50;99.90;;;;;;4991028;28;39048;-82
2023/03/23 01:20:43;;;;;;;5.82;2.70;;;12.50;99.90;;;;;;4990772;28;38191;-80
2023/03/23 01:23:11;;;;;;;5.15;2.83;;;12.60;99.90;;;;;;4976674;28;37180;-82
2023/03/23 01:25:40;;;;;;;5.43;2.40;;;12.60;99.90;;;;;;4957199;28;38829;-81
2023/03/23 01:28:06;;;;;;;4.82;2.60;;;12.50;99.90;;;;;;4962282;28;38886;-82
2023/03/23 01:30:33;;;;;;;5.05;2.30;;;12.50;99.90;;;;;;4989732;28;38124;-81
2023/03/23 01:33:04;;;;;;;5.93;2.65;;;12.50;99.90;;;;;;4977952;28;36479;-82
2023/03/23 01:35:30;;;;;;;6.18;2.85;;;12.50;99.90;;;;;;4994301;28;48276;-81
2023/03/23 01:37:56;;;;;;;4.18;2.40;;;12.50;99.90;;;;;;4977414;28;38144;-82
2023/03/23 01:40:23;;;;;;;3.45;2.33;;;12.50;99.90;;;;;;4976351;28;37064;-82
2023/03/23 01:43:30;;;;;;;3.88;2.40;;;12.50;99.90;;;;;;4980837;28;36793;-82
2023/03/23 01:46:04;;;;;;;4.47;2.22;;;12.60;99.90;;;;;;4978607;28;48033;-82
2023/03/23 01:48:37;;;;;;;4.22;2.40;;;12.60;99.90;;;;;;4978340;28;47904;-82
2023/03/23 01:51:40;;;;;;;6.68;2.83;;;12.50;99.90;;;;;;4993099;28;38386;-82
2023/03/23 01:54:10;;;;;;;9.25;2.58;;;12.50;99.90;;;;;;4984685;28;36431;-82
2023/03/23 01:57:16;;;;;;;4.97;2.60;;;12.50;99.90;;;;;;4979932;28;39251;-83
2023/03/23 02:00:10;;;;;;;5.72;2.63;;;12.50;99.90;;;;;;4978828;28;47441;-82
2023/03/23 02:02:38;;;;;;;6.30;2.85;;;12.50;99.90;;;;;;5403317;23;38429;-81
2023/03/23 02:05:29;;;;;;;5.40;2.55;;;12.50;99.90;;;;;;4957062;28;37138;-82
2023/03/23 02:08:02;;;;;;;9.27;2.63;;;12.50;99.90;;;;;;4940781;29;38998;-81
2023/03/23 02:10:30;;;;;;;5.97;2.22;;;12.50;99.90;;;;;;4952423;28;47489;-81
2023/03/23 02:13:01;;;;;;;6.00;2.75;;;12.50;99.90;;;;;;4974818;28;39514;-80
2023/03/23 02:15:40;;;;;;;7.53;3.38;;;12.60;99.90;;;;;;4954722;28;48497;-81
2023/03/23 02:18:22;;;;;;;4.35;2.35;;;12.60;99.90;;;;;;4932459;28;39242;-80
2023/03/23 02:21:16;;;;;;;7.87;2.60;;;12.50;99.90;;;;;;4952039;28;35693;-81
2023/03/23 02:23:56;;;;;;;8.32;2.35;;;12.60;99.90;;;;;;4961461;28;47371;-79
2023/03/23 02:26:40;;;;;;;6.97;2.50;;;12.50;99.90;;;;;;4931480;28;37556;-80
2023/03/23 02:29:26;;;;;;;5.53;2.40;;;12.50;99.90;;;;;;4931587;28;41516;-79
2023/03/23 02:32:10;;;;;;;4.00;2.15;;;12.50;99.90;;;;;;4957121;28;37588;-80
2023/03/23 02:34:45;;;;;;;4.40;2.40;;;12.50;99.90;;;;;;4935859;29;48131;-80
2023/03/23 02:37:16;;;;;;;7.75;2.20;;;12.50;99.90;;;;;;4926690;29;37515;-80
2023/03/23 02:40:06;;;;;;;5.13;2.13;;;12.50;99.90;;;;;;4960440;28;37789;-80
2023/03/23 02:42:34;;;;;;;6.80;2.30;;;12.50;99.90;;;;;;4939749;29;47335;-80
2023/03/23 02:45:05;;;;;;;6.78;2.13;;;12.50;99.90;;;;;;4965105;28;38109;-79
2023/03/23 02:47:40;;;;;;;5.75;2.10;;;12.50;99.90;;;;;;4952851;28;49145;-80
2023/03/23 02:50:16;;;;;;;5.13;2.20;;;12.50;99.90;;;;;;4934060;28;38213;-80
2023/03/23 02:52:51;;;;;;;4.70;2.05;;;12.50;99.90;;;;;;4933870;29;37189;-80
2023/03/23 02:55:28;;;;;;;8.02;2.08;;;12.50;99.90;;;;;;4931620;28;36708;-81
2023/03/23 02:57:56;;;;;;;3.55;2.17;;;12.50;99.90;;;;;;4958360;28;36389;-80
2023/03/23 03:00:22;;;;;;;5.78;2.05;;;12.50;99.90;;;;;;4954864;28;39234;-80
2023/03/23 03:02:56;;;;;;;5.68;2.88;;;12.40;99.90;;;;;;4944889;28;37345;-81
2023/03/23 03:05:52;;;;;;;6.32;2.42;;;12.40;99.90;;;;;;4926870;29;39553;-81
2023/03/23 03:08:50;;;;;;;4.97;2.25;;;12.40;99.90;;;;;;4937762;28;37252;-80
2023/03/23 03:11:22;;;;;;;4.90;2.50;;;12.50;99.90;;;;;;4947849;28;38779;-80
2023/03/23 03:13:56;;;;;;;6.63;2.33;;;12.50;99.90;;;;;;4948336;29;37418;-82
2023/03/23 03:17:00;;;;;;;6.40;2.38;;;12.50;99.90;;;;;;4940149;28;37239;-80
2023/03/23 03:19:28;;;;;;;4.18;2.10;;;12.50;99.90;;;;;;4942342;28;36058;-80
2023/03/23 03:21:58;;;;;;;4.72;2.22;;;12.50;99.90;;;;;;4934592;29;38428;-80
2023/03/23 03:24:28;;;;;;;8.93;2.17;;;12.50;99.90;;;;;;4937331;28;37246;-80
2023/03/23 03:26:57;;;;;;;5.93;1.85;;;12.60;99.90;;;;;;4945766;28;36416;-82
2023/03/23 03:29:29;;;;;;;4.45;2.13;;;12.60;99.90;;;;;;4947513;28;36214;-80
2023/03/23 03:31:59;;;;;;;7.72;2.05;;;12.60;99.90;;;;;;4946282;28;38133;-81
2023/03/23 03:34:53;;;;;;;8.48;1.83;;;12.60;99.90;;;;;;4963982;28;37092;-81
2023/03/23 03:37:39;;;;;;;6.43;1.98;;;12.50;99.90;;;;;;4922066;29;38263;-81
2023/03/23 03:40:11;;;;;;;6.88;1.83;;;12.60;99.90;;;;;;4938277;28;36385;-81
2023/03/23 03:42:45;;;;;;;7.53;1.83;;;12.60;99.90;;;;;;4948704;28;39056;-80
2023/03/23 03:45:19;;;;;;;5.82;1.90;;;12.50;99.90;;;;;;4965402;28;38314;-81
2023/03/23 03:47:52;;;;;;;4.40;1.50;;;12.50;99.90;;;;;;4952060;28;37200;-80
2023/03/23 03:50:19;;;;;;;5.20;1.90;;;12.50;99.90;;;;;;4954290;28;38622;-80
2023/03/23 03:52:45;;;;;;;6.15;1.55;;;12.50;99.90;;;;;;4965505;28;37653;-81
2023/03/23 03:55:17;;;;;;;5.32;1.63;;;12.50;99.90;;;;;;4967539;28;38434;-82
2023/03/23 03:57:43;;;;;;;7.20;1.92;;;12.50;99.90;;;;;;4950073;29;38212;-80
2023/03/23 04:00:38;;;;;;;9.13;1.98;;;12.50;99.90;;;;;;4959620;28;36287;-81
2023/03/23 04:03:05;;;;;;;8.02;1.75;;;12.50;99.90;;;;;;4975398;28;46998;-81
2023/03/23 04:05:38;;;;;;;6.95;2.03;;;12.60;99.90;;;;;;4966734;28;37612;-81
2023/03/23 04:08:06;;;;;;;7.72;1.88;;;12.50;99.90;;;;;;4946122;28;39331;-81
2023/03/23 04:10:40;;;;;;;7.43;1.60;;;12.50;99.90;;;;;;4952506;28;38788;-80
2023/03/23 04:13:16;;;;;;;8.98;3.03;;;12.50;99.90;;;;;;4971019;28;38959;-81
2023/03/23 04:15:45;;;;;;;10.85;2.35;;;12.50;99.90;;;;;;4958883;28;39815;-81
2023/03/23 04:18:11;;;;;;;6.65;1.70;;;12.50;99.90;;;;;;4949925;28;38285;-79
2023/03/23 04:20:39;;;;;;;7.20;1.95;;;12.50;99.90;;;;;;4949703;28;36201;-80
2023/03/23 04:23:05;;;;;;;12.13;2.00;;;12.30;99.90;;;;;;4938644;28;38971;-78
2023/03/23 04:25:32;;;;;;;12.77;2.17;;;12.10;99.90;;;;;;4941161;28;37242;-80
2023/03/23 04:28:00;;;;;;;11.20;2.17;;;11.90;99.90;;;;;;4948869;28;37005;-78
2023/03/23 04:30:29;;;;;;;11.80;2.50;;;11.80;99.90;;;;;;4948747;28;36643;-79
2023/03/23 04:32:55;;;;;;;12.15;2.28;;;11.70;99.90;;;;;;4938771;28;37803;-78
2023/03/23 04:35:26;;;;;;;14.50;2.60;;;11.70;99.90;;;;;;4935018;28;37634;-79
2023/03/23 04:37:53;;;;;;;14.27;2.50;;;11.60;99.90;;;;;;4958093;28;36806;-79
2023/03/23 04:40:20;;;;;;;11.57;2.67;;;11.60;99.90;;;;;;4943150;28;37707;-78
2023/03/23 04:42:48;;;;;;;13.95;2.78;;;11.50;99.90;;;;;;4939789;28;39025;-79
2023/03/23 04:45:21;;;;;;;13.68;3.10;;;11.50;99.90;;;;;;4953106;28;38815;-79
2023/03/23 04:47:57;;;;;;;14.55;3.17;;;11.40;99.90;;;;;;4913366;29;37167;-79
2023/03/23 04:50:30;;;;;;;17.92;3.25;;;11.50;99.90;;;;;;4920963;29;36934;-80
2023/03/23 04:52:57;;;;;;;17.63;3.95;;;11.40;99.90;;;;;;4920839;29;39234;-80
2023/03/23 04:55:26;;;;;;;13.13;2.83;;;11.40;99.90;;;;;;4933238;28;38658;-79
2023/03/23 04:58:01;;;;;;;18.37;3.30;;;11.30;99.90;;;;;;4935167;29;37215;-80
2023/03/23 05:00:27;;;;;;;14.53;2.83;;;11.30;99.90;;;;;;4924681;28;47025;-79
2023/03/23 05:02:55;;;;;;;11.63;2.88;;;11.30;99.90;;;;;;4932036;28;38720;-80
2023/03/23 05:05:23;;;;;;;16.67;3.57;;;11.30;99.90;;;;;;4955239;28;38923;-81
2023/03/23 05:07:50;;;;;;;15.38;3.25;;;11.30;99.90;;;;;;4931391;28;37501;-80
2023/03/23 05:10:16;;;;;;;12.67;2.40;;;11.30;99.90;;;;;;4935207;28;35953;-80
2023/03/23 05:12:44;;;;;;;16.55;2.95;;;11.30;99.90;;;;;;4952753;28;38114;-80
2023/03/23 05:15:12;;;;;;;16.75;2.90;;;11.30;99.90;;;;;;4955080;28;38247;-80
2023/03/23 05:17:40;;;;;;;20.00;3.55;;;11.30;99.90;;;;;;4947248;28;37944;-81
2023/03/23 05:20:11;;;;;;;16.13;3.53;;;11.30;99.90;;;;;;4949659;28;37623;-80
2023/03/23 05:22:38;;;;;;;13.33;3.27;;;11.20;99.90;;;;;;4959762;28;37423;-81
2023/03/23 05:25:06;;;;;;;13.93;3.20;;;11.20;99.90;;;;;;4956498;28;37564;-80
2023/03/23 05:27:32;;;;;;;19.58;2.97;;;11.20;99.90;;;;;;4954919;28;38069;-80
2023/03/23 05:29:58;;;;;;;15.02;3.58;;;11.20;99.90;;;;;;4942732;28;37876;-80
2023/03/23 05:32:31;;;;;;;16.10;3.60;;;11.20;99.90;;;;;;4931942;28;39465;-80
2023/03/23 05:34:58;;;;;;;14.83;3.97;;;11.20;99.90;;;;;;4936118;28;38447;-80
2023/03/23 05:37:28;;;;;;;17.35;3.00;;;11.20;99.90;;;;;;4923827;28;35697;-80
2023/03/23 05:39:55;;;;;;;15.93;3.43;;;11.20;99.90;;;;;;4937130;28;36371;-80
2023/03/23 05:42:25;;;;;;;17.70;3.67;;;11.20;99.90;;;;;;4914907;28;38803;-80
2023/03/23 05:44:51;;;;;;;15.73;3.13;;;11.20;99.90;;;;;;4923316;29;38621;-80
2023/03/23 05:47:17;;;;;;;13.63;3.23;;;11.20;99.90;;;;;;4934358;28;36826;-79
2023/03/23 05:49:43;;;;;;;9.57;2.60;;;11.20;99.90;;;;;;4928647;28;35921;-80
2023/03/23 05:52:10;;;;;;;21.27;3.27;;;11.20;99.90;;;;;;4934508;28;38710;-79
2023/03/23 05:54:36;;;;;;;11.27;2.80;;;11.30;99.90;;;;;;4931058;28;38461;-81
2023/03/23 05:57:03;;;;;;;11.10;2.73;;;11.30;99.90;;;;;;4947832;28;38338;-82
2023/03/23 05:59:29;;;;;;;15.20;2.97;;;11.20;99.90;;;;;;4928509;28;35991;-79
2023/03/23 06:01:55;;;;;;;22.70;4.30;;;11.20;99.90;;;;;;4925964;29;37907;-79
2023/03/23 06:04:24;;;;;;;19.97;3.27;;;11.20;99.90;;;;;;4925981;29;39666;-82
2023/03/23 06:06:54;;;;;;;11.77;3.58;;;11.20;99.90;;;;;;4952534;29;37283;-80
2023/03/23 06:09:21;;;;;;;16.40;4.00;;;11.20;99.90;;;;;;4956500;28;37363;-80
2023/03/23 06:11:52;;;;;;;14.38;3.08;;;11.10;99.90;;;;;;4962262;28;37521;-81
2023/03/23 06:14:18;;;;;;;17.47;3.17;;;11.10;99.90;;;;;;4958887;28;38801;-82
2023/03/23 06:16:46;;;;;;;14.80;3.13;;;11.10;99.90;;;;;;4949050;28;36857;-81
2023/03/23 06:19:18;;;;;;;17.80;3.47;;;11.10;99.90;;;;;;4930969;28;38417;-80
2023/03/23 06:27:10;;;;;;;18.13;3.83;;;11.00;99.90;;;;;;5273800;23;20042;-79
2023/03/23 06:29:39;;;;;;;12.17;2.90;;;11.00;99.90;;;;;;4980560;28;36206;-81
2023/03/23 06:32:07;;;;;;;17.23;4.43;;;11.10;99.90;;;;;;4993919;28;40510;-81
2023/03/23 06:34:33;;;;;;;15.00;4.13;;;11.10;99.90;;;;;;4992107;28;37804;-82
2023/03/23 06:37:00;;;;;;;16.80;3.57;;;11.10;99.90;;;;;;4998313;28;38289;-82
2023/03/23 06:42:26;;;;;;;15.53;3.17;;;11.10;99.90;;;;;;5750188;23;20053;-80
2023/03/23 06:44:56;;;;;;;14.02;3.20;;;11.10;99.90;;;;;;4948325;28;37900;-81
2023/03/23 06:49:58;;;;;;;16.42;3.28;;;11.10;99.90;;;;;;5789151;23;20056;-82
2023/03/23 06:52:25;;;;;;;16.98;3.47;;;11.20;99.90;;;;;;5549120;23;39298;-81
2023/03/23 06:54:52;;;;;;;14.13;3.10;;;11.20;99.90;;;;;;4938824;28;36645;-80
2023/03/23 06:57:20;;;;;;;14.35;3.13;;;11.20;99.90;;;;;;4935437;28;38546;-80
2023/03/23 06:59:47;;;;;;;16.63;3.03;;;11.20;99.90;;;;;;4938047;28;37530;-80
2023/03/23 07:02:14;;;;;;;15.63;3.70;;;11.20;99.90;;;;;;4936326;28;37785;-80
2023/03/23 07:04:40;;;;;;;15.03;3.53;;;11.20;99.90;;;;;;4937586;28;37684;-79
2023/03/23 07:07:09;;;;;;;15.37;3.40;;;11.10;99.90;;;;;;4956192;28;38068;-78
2023/03/23 07:09:35;;;;;;;19.73;3.53;;;11.10;99.90;;;;;;4949116;28;37617;-77
2023/03/23 07:12:02;;;;;;;19.07;3.37;;;11.10;99.90;;;;;;4959480;28;39849;-80
2023/03/23 07:14:33;;;;;;;16.40;3.40;;;11.20;99.90;;;;;;4986680;28;47888;-81
2023/03/23 07:17:09;;;;;;;18.08;4.13;;;11.20;99.90;;;;;;4934938;28;38362;-81
2023/03/23 07:19:38;;;;;;;13.40;3.47;;;11.20;99.90;;;;;;4954800;28;48964;-81
2023/03/23 07:22:12;;;;;;;13.57;2.77;;;11.30;99.90;;;;;;4951555;28;38853;-80
2023/03/23 07:24:38;;;;;;;11.40;2.95;;;11.30;99.90;;;;;;4968161;28;39555;-81
2023/03/23 07:27:04;;;;;;;15.13;3.78;;;11.30;99.90;;;;;;4970470;28;37368;-80
2023/03/23 07:29:35;;;;;;;15.70;3.05;;;11.30;99.90;;;;;;4972507;28;36068;-81
2023/03/23 07:32:10;;;;;;;15.73;3.30;;;11.20;99.90;;;;;;4974326;28;39948;-81
2023/03/23 07:34:38;;;;;;;19.57;3.50;;;11.10;99.90;;;;;;4962685;28;39019;-81
2023/03/23 07:37:05;;;;;;;14.10;2.80;;;11.20;99.90;;;;;;4963604;28;38318;-81
2023/03/23 07:39:33;;;;;;;15.57;3.35;;;11.40;99.90;;;;;;4959326;28;35881;-81
2023/03/23 07:41:59;;;;;;;13.40;2.78;;;11.50;99.90;;;;;;4963317;28;37442;-80
2023/03/23 07:44:25;;;;;;;18.10;3.05;;;11.50;99.90;;;;;;4974487;28;37501;-80
2023/03/23 07:46:52;;;;;;;8.77;2.60;;;11.60;99.90;;;;;;4973792;28;37913;-80
2023/03/23 07:49:18;;;;;;;11.40;2.78;;;11.50;99.90;;;;;;4958843;28;35787;-81
2023/03/23 07:51:45;;;;;;;13.25;3.47;;;11.50;99.90;;;;;;4953606;28;38609;-80
2023/03/23 07:54:12;;;;;;;12.75;4.00;;;11.50;99.90;;;;;;4967847;28;40010;-81
2023/03/23 07:56:39;;;;;;;11.38;2.78;;;11.50;99.90;;;;;;4949475;28;37585;-81
2023/03/23 07:59:07;;;;;;;13.18;3.13;;;11.50;99.90;;;;;;4955829;28;36696;-81
2023/03/23 08:01:33;;;;;;;11.77;3.47;;;11.50;99.90;;;;;;4967258;28;38814;-80
2023/03/23 08:04:00;;;;;;;10.65;3.70;;;11.50;99.90;;;;;;4957060;28;37267;-80
2023/03/23 08:09:10;;;;;;;14.10;2.65;;;11.70;99.90;;;;;;4961147;28;20058;-79
2023/03/23 08:11:37;;;;;;;9.32;2.80;;;11.80;99.90;;;;;;4959746;28;39221;-79
2023/03/23 08:14:03;;;;;;;11.90;3.33;;;11.90;99.90;;;;;;4959289;28;37009;-81
2023/03/23 08:16:29;;;;;;;14.65;3.00;;;11.80;99.90;;;;;;4966886;28;38090;-81
2023/03/23 08:18:57;;;;;;;13.48;2.92;;;11.90;99.90;;;;;;4954189;28;36124;-80
2023/03/23 08:21:27;;;;;;;12.98;3.15;;;11.90;99.90;;;;;;4964069;28;40651;-81
2023/03/23 08:24:05;;;;;;;11.75;2.67;;;12.00;99.90;;;;;;4958677;28;39143;-81
2023/03/23 08:27:12;;;;;;;15.68;3.30;;;11.90;99.90;;;;;;4959693;28;47434;-81
2023/03/23 08:33:40;;;;;;;16.23;2.85;;;11.70;99.90;;;;;;4393491;23;20031;-81
2023/03/23 08:39:33;;;;;;;18.17;3.22;;;11.90;99.90;;;;;;5602377;23;20080;-82
2023/03/23 08:41:59;;;;;;;18.25;3.15;;;11.90;99.90;;;;;;5380904;23;37672;-77
2023/03/23 08:44:26;;;;;;;12.73;3.03;;;12.00;99.90;;;;;;5059902;23;37596;-81
2023/03/23 08:46:56;;;;;;;16.70;3.63;;;12.10;99.90;;;;;;4983870;28;38571;-79
2023/03/23 08:49:23;;;;;;;13.95;2.83;;;12.10;99.90;;;;;;4994601;28;38771;-79
2023/03/23 08:51:50;;;;;;;16.50;2.92;;;12.20;99.90;;;;;;4993614;28;37659;-78
2023/03/23 08:54:16;;;;;;;11.90;2.20;;;12.20;99.90;;;;;;4976801;28;38487;-79
2023/03/23 08:56:44;;;;;;;16.17;2.78;;;12.30;99.90;;;;;;4990886;28;37540;-79
2023/03/23 08:59:11;;;;;;;13.05;3.15;;;12.40;99.90;;;;;;4988884;28;38624;-81
2023/03/23 09:01:39;;;;;;;13.60;2.42;;;12.40;99.90;;;;;;4993981;28;36121;-80
2023/03/23 09:04:05;;;;;;;18.23;3.10;;;12.40;99.90;;;;;;5034523;23;39371;-78
2023/03/23 09:06:33;;;;;;;19.55;2.67;;;12.50;99.90;;;;;;4961197;28;38099;-80
2023/03/23 09:09:00;;;;;;;15.45;3.15;;;12.50;99.90;;;;;;4963298;28;38012;-80
2023/03/23 09:11:26;;;;;;;9.38;2.22;;;12.70;99.90;;;;;;4943776;28;38466;-80
2023/03/23 09:13:52;;;;;;;13.23;2.65;;;12.90;99.90;;;;;;4968347;28;39739;-80
2023/03/23 09:16:18;;;;;;;9.73;2.60;;;12.80;99.90;;;;;;4962664;28;38075;-79
2023/03/23 09:18:45;;;;;;;15.38;2.40;;;12.80;99.90;;;;;;4968856;28;38713;-79
2023/03/23 09:21:12;;;;;;;16.85;3.17;;;13.00;99.90;;;;;;4972842;28;37789;-80
2023/03/23 09:23:39;;;;;;;16.67;2.75;;;13.00;99.90;;;;;;4975375;28;40387;-80
2023/03/23 09:26:05;;;;;;;13.55;2.10;;;13.20;99.90;;;;;;4972360;28;37733;-80
2023/03/23 09:28:31;;;;;;;12.20;2.53;;;13.50;99.90;;;;;;4962242;28;38309;-77
2023/03/23 09:30:58;;;;;;;18.45;3.03;;;13.80;99.90;;;;;;4957809;28;38210;-77
2023/03/23 09:33:25;;;;;;;13.75;2.80;;;13.80;99.90;;;;;;4959344;28;39968;-79
2023/03/23 09:35:51;;;;;;;13.93;3.03;;;13.80;99.90;;;;;;4958552;28;37321;-78
2023/03/23 09:38:19;;;;;;;16.48;3.25;;;13.70;99.90;;;;;;4957979;28;36691;-78
2023/03/23 09:40:48;;;;;;;18.00;3.53;;;13.70;99.90;;;;;;4969116;28;36252;-78
2023/03/23 09:43:35;;;;;;;18.58;3.65;;;13.90;99.90;;;;;;4963760;28;40091;-78
2023/03/23 09:46:07;;;;;;;23.88;4.05;;;13.70;99.90;;;;;;4949674;28;36770;-77
2023/03/23 09:48:44;;;;;;;15.55;2.90;;;13.70;99.90;;;;;;4947400;28;38186;-78
2023/03/23 09:51:32;;;;;;;18.80;2.92;;;13.80;99.90;;;;;;4949739;28;36233;-78
2023/03/23 09:54:10;;;;;;;23.50;4.07;;;14.00;99.90;;;;;;4945172;28;37890;-78
2023/03/23 09:56:37;;;;;;;21.63;5.07;;;14.10;99.90;;;;;;4939558;28;47381;-78
2023/03/23 09:59:13;;;;;;;23.08;4.43;;;14.00;99.90;;;;;;4932138;28;38271;-78
2023/03/23 10:01:47;;;;;;;13.55;3.40;;;14.10;99.90;;;;;;4941510;28;37548;-79
2023/03/23 10:04:46;;;;;;;21.35;3.70;;;14.00;99.90;;;;;;4932179;28;37898;-77
2023/03/23 10:07:19;;;;;;;19.88;3.85;;;13.90;99.90;;;;;;4916851;28;38998;-78
2023/03/23 10:09:48;;;;;;;18.63;3.78;;;13.90;99.90;;;;;;4932838;28;37298;-78
2023/03/23 10:12:17;;;;;;;16.48;3.65;;;14.00;99.90;;;;;;4929864;28;37358;-78
2023/03/23 10:14:50;;;;;;;12.27;4.05;;;14.30;99.90;;;;;;4929808;28;38547;-81
2023/03/23 10:17:23;;;;;;;19.38;3.65;;;14.30;99.90;;;;;;4926259;28;37547;-79
2023/03/23 10:20:04;;;;;;;15.48;3.10;;;14.60;99.90;;;;;;4938149;28;37096;-79
2023/03/23 10:22:56;;;;;;;18.40;4.32;;;14.30;99.90;;;;;;4928978;28;36843;-79
2023/03/23 10:25:26;;;;;;;19.13;3.78;;;14.50;99.90;;;;;;4929188;28;38824;-79
2023/03/23 10:28:05;;;;;;;18.35;3.65;;;14.50;99.90;;;;;;4929993;28;37708;-78
2023/03/23 10:30:39;;;;;;;16.95;3.92;;;14.30;99.90;;;;;;4938259;28;47215;-79
2023/03/23 10:33:29;;;;;;;16.85;3.38;;;14.30;99.90;;;;;;4932127;28;37010;-79
2023/03/23 10:36:04;;;;;;;16.88;4.07;;;14.50;99.90;;;;;;4928405;28;38819;-79
2023/03/23 10:38:45;;;;;;;18.65;3.78;;;14.80;99.90;;;;;;4931838;28;47322;-79
2023/03/23 10:41:13;;;;;;;18.70;4.20;;;15.30;99.90;;;;;;4933783;28;36890;-79
2023/03/23 10:43:41;;;;;;;21.35;4.00;;;15.60;99.90;;;;;;4933212;28;38177;-79
2023/03/23 10:46:31;;;;;;;16.17;3.85;;;15.60;99.90;;;;;;4941491;28;39287;-82
2023/03/23 10:49:00;;;;;;;18.10;3.75;;;15.80;99.90;;;;;;4934245;28;38728;-81
2023/03/23 10:51:33;;;;;;;21.20;4.43;;;15.90;99.90;;;;;;4934241;28;38306;-80
2023/03/23 10:54:02;;;;;;;16.65;3.35;;;16.00;99.90;;;;;;4936505;28;35792;-81
2023/03/23 10:56:37;;;;;;;18.83;3.38;;;15.80;99.90;;;;;;4929452;28;46597;-81
2023/03/23 10:59:28;;;;;;;19.02;3.67;;;15.50;99.90;;;;;;4931328;28;38353;-82
2023/03/23 11:02:03;;;;;;;17.08;3.40;;;15.10;99.90;;;;;;4936866;28;38356;-81
2023/03/23 11:04:30;;;;;;;22.10;4.00;;;14.70;99.90;;;;;;4926293;29;47072;-80
2023/03/23 11:07:02;;;;;;;19.00;3.45;;;14.40;99.90;;;;;;4922695;29;37737;-78
2023/03/23 11:09:51;;;;;;;17.60;3.65;;;14.30;99.90;;;;;;4940012;28;46979;-78
2023/03/23 11:12:19;;;;;;;19.92;3.70;;;14.20;99.90;;;;;;4931178;28;37836;-79
2023/03/23 11:14:45;;;;;;;19.45;3.38;;;14.00;99.90;;;;;;4934431;28;37261;-80
2023/03/23 11:17:24;;;;;;;15.93;3.20;;;13.90;99.90;;;;;;4937462;28;38077;-79
2023/03/23 11:19:54;;;;;;;13.40;3.05;;;14.30;99.90;;;;;;4928415;28;38330;-79
2023/03/23 11:22:31;;;;;;;20.10;2.85;;;14.90;99.90;;;;;;4933801;28;37239;-82
2023/03/23 11:25:01;;;;;;;8.75;2.50;;;15.10;99.90;;;;;;4924615;29;36994;-81
2023/03/23 11:27:28;;;;;;;12.27;2.67;;;15.10;99.90;;;;;;4932581;28;37620;-79
2023/03/23 11:29:59;;;;;;;15.48;3.25;;;15.20;99.90;;;;;;4939702;28;38305;-81
2023/03/23 11:32:28;;;;;;;15.70;2.60;;;15.50;99.90;;;;;;4921100;28;36922;-79
2023/03/23 11:35:00;;;;;;;12.38;2.60;;;15.70;99.90;;;;;;4934779;28;36738;-79
2023/03/23 11:37:52;;;;;;;15.98;2.95;;;15.70;99.90;;;;;;4950389;28;38763;-78
2023/03/23 11:40:25;;;;;;;12.45;2.65;;;15.50;99.90;;;;;;4936628;28;37345;-79
2023/03/23 11:43:23;;;;;;;6.55;1.60;;;15.70;99.90;;;;;;4940274;28;38112;-79
2023/03/23 11:46:22;;;;;;;11.18;2.20;;;15.80;99.90;;;;;;4936251;28;47186;-78
2023/03/23 11:48:58;;;;;;;10.98;2.35;;;15.70;99.90;;;;;;4954801;28;47256;-81
2023/03/23 11:51:28;;;;;;;13.65;2.53;;;15.60;99.90;;;;;;4959697;28;38082;-78
2023/03/23 11:54:12;;;;;;;8.27;2.40;;;15.60;99.90;;;;;;4959014;28;36451;-81
2023/03/23 11:56:42;;;;;;;9.95;2.40;;;16.00;99.90;;;;;;4959821;28;48633;-81
2023/03/23 11:59:15;;;;;;;10.57;2.50;;;16.20;99.90;;;;;;4955912;28;38853;-82
2023/03/23 12:02:14;;;;;;;17.48;4.07;;;16.30;99.90;;;;;;4943807;28;37910;-80
2023/03/23 12:05:12;;;;;;;17.45;3.10;;;16.30;99.90;;;;;;4953086;28;48124;-80
2023/03/23 12:07:52;;;;;;;13.70;2.80;;;16.60;99.90;;;;;;4958031;28;48330;-79
2023/03/23 12:10:25;;;;;;;10.15;2.47;;;16.40;99.90;;;;;;4963631;28;38490;-79
2023/03/23 12:13:03;;;;;;;12.38;2.70;;;16.50;99.90;;;;;;4929411;28;37625;-80
2023/03/23 12:15:36;;;;;;;9.57;2.42;;;16.40;99.90;;;;;;4937324;28;48457;-79
2023/03/23 12:18:33;;;;;;;7.57;2.42;;;15.90;99.90;;;;;;4939188;28;36687;-79
2023/03/23 12:21:20;;;;;;;12.13;2.53;;;15.60;99.90;;;;;;4949563;28;38257;-79
2023/03/23 12:24:17;;;;;;;10.88;2.40;;;15.80;99.90;;;;;;4960215;28;48255;-82
2023/03/23 12:27:19;;;;;;;14.00;3.15;;;16.20;99.90;;;;;;4960583;28;49193;-81
2023/03/23 12:30:15;;;;;;;10.77;2.00;;;16.60;99.90;;;;;;4916029;28;47430;-79
2023/03/23 12:32:55;;;;;;;10.07;2.63;;;16.50;99.90;;;;;;4944698;28;47084;-80
2023/03/23 12:35:49;;;;;;;12.25;2.65;;;16.60;99.90;;;;;;4944782;28;37480;-80
2023/03/23 12:38:25;;;;;;;9.60;2.35;;;16.60;99.90;;;;;;4936569;28;38276;-80
2023/03/23 12:41:09;;;;;;;11.98;2.33;;;16.60;99.90;;;;;;4933925;28;37624;-80
2023/03/23 12:43:52;;;;;;;10.20;2.30;;;16.50;99.90;;;;;;4935241;28;49332;-80
2023/03/23 12:46:51;;;;;;;12.88;2.72;;;16.50;99.90;;;;;;4946899;28;37294;-82
2023/03/23 12:49:55;;;;;;;12.35;2.33;;;16.60;99.90;;;;;;4940148;28;37547;-82
2023/03/23 12:52:51;;;;;;;14.45;3.28;;;16.70;99.90;;;;;;4907857;28;36489;-79
2023/03/23 12:55:27;;;;;;;11.88;2.00;;;16.50;99.90;;;;;;4950568;28;39083;-80
2023/03/23 12:57:59;;;;;;;14.07;2.95;;;16.80;99.90;;;;;;4926959;28;38423;-81
2023/03/23 13:00:48;;;;;;;12.32;2.50;;;17.10;99.90;;;;;;4931919;28;37760;-83
2023/03/23 13:03:26;;;;;;;13.57;2.83;;;17.00;99.90;;;;;;4920987;28;37709;-83
2023/03/23 13:06:25;;;;;;;9.98;2.90;;;16.70;99.90;;;;;;4930549;28;38042;-80
2023/03/23 13:09:18;;;;;;;16.63;2.55;;;16.30;99.90;;;;;;4935893;28;47288;-81
2023/03/23 13:11:46;;;;;;;13.43;2.72;;;16.20;99.90;;;;;;4941789;28;47005;-80
2023/03/23 13:14:41;;;;;;;12.35;3.05;;;16.00;99.90;;;;;;4944285;28;36475;-80
2023/03/23 13:17:37;;;;;;;15.68;3.95;;;16.00;99.90;;;;;;4948512;28;37031;-80
2023/03/23 13:20:29;;;;;;;11.23;2.95;;;16.50;99.90;;;;;;4933662;28;38507;-81
2023/03/23 13:23:17;;;;;;;14.07;3.67;;;17.10;99.90;;;;;;4930621;28;49149;-80
2023/03/23 13:26:05;;;;;;;17.27;3.35;;;16.90;99.90;;;;;;4933704;28;47694;-81
2023/03/23 13:28:45;;;;;;;18.30;3.88;;;16.50;99.90;;;;;;4929055;28;47165;-80
2023/03/23 13:31:15;;;;;;;15.77;3.03;;;16.40;99.90;;;;;;4944615;28;37169;-81
2023/03/23 13:33:50;;;;;;;11.73;3.08;;;16.30;99.90;;;;;;4954300;28;38107;-81
2023/03/23 13:36:26;;;;;;;15.07;3.65;;;16.10;99.90;;;;;;4956622;28;36515;-80